MMML

Details ICAO MMML (MXL)
Name GENERAL RODOLFO SANCHEZ TABOADA INTL
Region Mexico
Timezone America/Tijuana (UTC-7.0)
Plans Departing 18
Arriving 22
Stats Elevation 74 ft / 23 m (AMSL)
Location 32.630667° -115.242439°
Runways 1
Magnetic Variation 11.028° E
Sunrise 2018-05-25 12:38:06 UTC / 2018-05-25 05:38:06 Local
Sunset 2018-05-26 02:40:39 UTC / 2018-05-25 19:40:39 Local
Advertisement - Login to hide

Runways

ID Width Length Bearing (true) Bearing (mag) Surface Threshold Offset Overrun Length
10 148 ft / 45 m 8,536 ft / 2,602 m 118.32° 107.29° Concrete 0 ft / 0 m 200 ft / 61 m
28 148 ft / 45 m 8,536 ft / 2,602 m 298.34° 287.31° Concrete 0 ft / 0 m 200 ft / 61 m

Map

Weather


0- 5 10 15 20 25 30 35+ Temperature / ° C

Clouds and Precipitation
Forecast for 2018-05-25 18:00 UTC. Updated 2 hours ago

Ground ~20,000 ft ~40,000 ft Winds

METAR

MMML 251847Z 30006KT 10SM SKC 30/M01 A2993

TAF

Not found

Frequencies

Recorded 127.60 MHz ATIS
Approach 118.20 MHz MEXICALI APP/TWR
Tower 123.90 MHz MEXICALI INFO
Warning: Do not use this data for real-world aviation or navigation. No guarantee of current accuracy is given.